createdAt,value
2019-02-18T00:01:54.373Z,99734.02
2019-02-18T00:07:00.341Z,99737.88
2019-02-18T00:12:07.655Z,99733.73
2019-02-18T00:17:13.506Z,99728.89
2019-02-18T00:22:21.812Z,99723.45
2019-02-18T00:27:27.514Z,99732.56
2019-02-18T00:32:38.540Z,99730.97
2019-02-18T00:37:47.729Z,99726.26
2019-02-18T00:42:55.374Z,99718.92
2019-02-18T00:48:03.251Z,99722.01
2019-02-18T00:53:09.433Z,99714.34
2019-02-18T00:58:15.008Z,99719.59
2019-02-18T01:03:22.404Z,99698.21
2019-02-18T01:08:28.460Z,99715.53
2019-02-18T01:13:37.334Z,99714.02
2019-02-18T01:18:49.010Z,99712.13
2019-02-18T01:23:58.899Z,99703.95
2019-02-18T01:29:08.446Z,99709.66
2019-02-18T01:34:14.954Z,99705.60
2019-02-18T01:39:21.082Z,99704.69
2019-02-18T01:44:29.097Z,99704.22
2019-02-18T01:49:37.970Z,99694.92
2019-02-18T01:54:44.054Z,99682.38
2019-02-18T01:59:50.735Z,99694.39
2019-02-18T02:04:56.874Z,99679.48
2019-02-18T02:10:06.768Z,99678.12
2019-02-18T02:15:24.240Z,99683.16
2019-02-18T02:20:39.835Z,99677.33
2019-02-18T02:25:48.781Z,99677.92
2019-02-18T02:30:54.743Z,99661.30
2019-02-18T02:36:05.807Z,99663.48
2019-02-18T02:41:17.508Z,99664.98
2019-02-18T02:46:23.386Z,99651.14
2019-02-18T02:51:29.038Z,99646.34
2019-02-18T02:56:37.345Z,99642.64
2019-02-18T03:01:42.403Z,99636.94
2019-02-18T03:06:48.631Z,99642.59
2019-02-18T03:11:55.667Z,99632.84
2019-02-18T03:17:01.687Z,99632.09
2019-02-18T03:22:10.591Z,99632.81
2019-02-18T03:27:16.635Z,99625.73
2019-02-18T03:32:27.019Z,99627.78
2019-02-18T03:37:36.048Z,99632.48
2019-02-18T03:42:44.040Z,99626.98
2019-02-18T03:47:52.502Z,99625.59
2019-02-18T03:53:03.093Z,99622.19
2019-02-18T03:58:10.841Z,99623.30
2019-02-18T04:03:19.014Z,99620.41
2019-02-18T04:08:26.149Z,99615.44
2019-02-18T04:13:32.310Z,99611.44
2019-02-18T04:18:39.272Z,99613.50
2019-02-18T04:23:45.363Z,99613.97
2019-02-18T04:28:54.194Z,99614.24
2019-02-18T04:34:06.265Z,99616.30
2019-02-18T04:39:14.476Z,99604.91
2019-02-18T04:44:25.708Z,99601.80
2019-02-18T04:49:31.506Z,99603.82
2019-02-18T04:54:40.201Z,99601.88
2019-02-18T04:59:49.585Z,99596.77
2019-02-18T05:04:56.342Z,99598.80
2019-02-18T05:10:04.646Z,99602.19
2019-02-18T05:15:10.380Z,99595.78
2019-02-18T05:20:19.467Z,99593.66
2019-02-18T05:25:27.927Z,99594.88
2019-02-18T05:30:33.675Z,99583.52
2019-02-18T05:35:45.414Z,99589.16
2019-02-18T05:40:52.648Z,99588.94
2019-02-18T05:45:59.638Z,99590.08
2019-02-18T05:51:10.299Z,99591.78
2019-02-18T05:56:18.535Z,99582.31
2019-02-18T06:01:24.205Z,99598.28
2019-02-18T06:06:30.913Z,99605.89
2019-02-18T06:11:39.806Z,99603.98
2019-02-18T06:16:58.450Z,99611.29
2019-02-18T06:22:10.385Z,99603.58
2019-02-18T06:27:17.754Z,99607.44
2019-02-18T06:32:23.833Z,99613.10
2019-02-18T06:37:30.580Z,99616.98
2019-02-18T06:42:38.443Z,99621.16
2019-02-18T06:47:47.073Z,99624.94
2019-02-18T06:52:57.545Z,99632.98
2019-02-18T06:58:17.732Z,99639.11
2019-02-18T07:03:32.092Z,99636.97
2019-02-18T07:09:16.001Z,99641.78
2019-02-18T07:14:25.465Z,99636.39
2019-02-18T07:19:33.273Z,99637.19
2019-02-18T07:24:39.028Z,99635.48
2019-02-18T07:29:46.839Z,99632.17
2019-02-18T07:34:52.827Z,99629.69
2019-02-18T07:40:01.514Z,99627.97
2019-02-18T07:45:10.076Z,99630.45
2019-02-18T07:50:20.892Z,99628.73
2019-02-18T07:55:27.641Z,99624.00
2019-02-18T08:00:44.127Z,99615.91
2019-02-18T08:05:50.249Z,99606.73
2019-02-18T08:11:05.317Z,99606.73
2019-02-18T08:16:13.140Z,99615.50
2019-02-18T08:21:21.452Z,99605.80
2019-02-18T08:26:28.244Z,99609.80
2019-02-18T08:31:38.344Z,99611.19
2019-02-18T08:36:43.995Z,99605.15
2019-02-18T08:41:56.302Z,99605.15
2019-02-18T08:47:07.290Z,99601.32
2019-02-18T08:52:14.172Z,99607.39
2019-02-18T08:57:22.910Z,99602.78
2019-02-18T09:02:28.922Z,99601.06
2019-02-18T09:07:39.970Z,99604.31
2019-02-18T09:12:47.440Z,99601.73
2019-02-18T09:17:56.064Z,99592.80
2019-02-18T09:23:20.748Z,99594.73
2019-02-18T09:28:32.691Z,99594.50
2019-02-18T09:33:38.481Z,99585.16
2019-02-18T09:38:45.717Z,99580.38
2019-02-18T09:43:54.440Z,99582.98
2019-02-18T09:49:03.645Z,99581.23
2019-02-18T09:54:11.104Z,99574.25
2019-02-18T09:59:17.457Z,99569.30
2019-02-18T10:04:24.803Z,99563.42
2019-02-18T10:09:30.417Z,99566.17
2019-02-18T10:14:36.222Z,99566.34
2019-02-18T10:19:43.249Z,99565.67
2019-02-18T10:24:51.685Z,99567.88
2019-02-18T10:30:05.126Z,99560.70
2019-02-18T10:35:11.838Z,99552.49
2019-02-18T10:40:18.815Z,99552.81
2019-02-18T10:45:25.266Z,99547.62
2019-02-18T10:50:34.060Z,99540.70
2019-02-18T10:55:43.879Z,99536.47
2019-02-18T11:00:54.502Z,99527.89
2019-02-18T11:06:03.717Z,99529.95
2019-02-18T11:11:17.065Z,99518.25
2019-02-18T11:16:20.641Z,99512.48
2019-02-18T11:21:26.443Z,99505.05
2019-02-18T11:26:34.490Z,99497.63
2019-02-18T11:31:43.950Z,99488.28
2019-02-18T11:36:51.357Z,99484.05
2019-02-18T11:42:08.562Z,99479.33
2019-02-18T11:47:09.583Z,99467.42
2019-02-18T11:52:17.327Z,99454.92
2019-02-18T11:57:26.182Z,99449.19
2019-02-18T12:02:38.291Z,99446.20
2019-02-18T12:07:45.575Z,99442.72
2019-02-18T12:12:56.904Z,99437.29
2019-02-18T12:18:08.555Z,99433.42
2019-02-18T12:23:14.247Z,99430.89
2019-02-18T12:28:27.534Z,99419.47
2019-02-18T12:33:36.096Z,99412.41
2019-02-18T12:38:43.982Z,99403.50
2019-02-18T12:43:52.412Z,99396.03
2019-02-18T12:49:00.371Z,99386.41
2019-02-18T12:54:11.135Z,99384.31
2019-02-18T12:59:17.942Z,99375.75
2019-02-18T13:04:23.623Z,99362.81
2019-02-18T13:09:33.559Z,99366.11
2019-02-18T13:14:42.305Z,99362.05
2019-02-18T13:19:50.422Z,99352.36
2019-02-18T13:25:00.676Z,99338.09
2019-02-18T13:30:16.431Z,99340.86
2019-02-18T13:35:23.824Z,99328.68
2019-02-18T13:40:34.585Z,99323.84
2019-02-18T13:45:44.916Z,99324.80
2019-02-18T13:50:52.225Z,99321.80
2019-02-18T13:56:01.108Z,99318.57
2019-02-18T14:01:10.393Z,99317.05
2019-02-18T14:06:19.446Z,99323.72
2019-02-18T14:11:25.429Z,99321.31
2019-02-18T14:16:32.863Z,99313.33
2019-02-18T14:21:43.000Z,99320.59
2019-02-18T14:26:51.536Z,99316.44
2019-02-18T14:32:00.936Z,99316.48
2019-02-18T14:37:09.615Z,99313.97
2019-02-18T14:42:24.330Z,99304.47
2019-02-18T14:47:24.900Z,99303.36
2019-02-18T14:52:31.899Z,99301.88
2019-02-18T14:57:40.715Z,99299.74
2019-02-18T15:02:47.759Z,99302.41
2019-02-18T15:07:53.870Z,99301.52
2019-02-18T15:13:06.209Z,99292.61
2019-02-18T15:18:14.373Z,99291.30
2019-02-18T15:23:25.301Z,99283.48
2019-02-18T15:28:37.006Z,99268.11
2019-02-18T15:33:42.663Z,99262.34
2019-02-18T15:38:58.447Z,99263.83
2019-02-18T15:44:07.350Z,99261.77
2019-02-18T15:49:18.116Z,99254.73
2019-02-18T15:54:26.863Z,99256.34
2019-02-18T15:59:32.525Z,99258.57
2019-02-18T16:04:42.519Z,99266.33
2019-02-18T16:09:50.723Z,99252.70
2019-02-18T16:14:58.131Z,99251.31
2019-02-18T16:20:09.227Z,99245.75
2019-02-18T16:25:25.344Z,99241.94
2019-02-18T16:30:31.185Z,99240.50
2019-02-18T16:35:47.038Z,99240.66
2019-02-18T16:40:53.563Z,99231.23
2019-02-18T16:46:01.577Z,99233.91
2019-02-18T16:51:09.351Z,99242.98
2019-02-18T16:56:26.456Z,99240.56
2019-02-18T17:01:34.189Z,99248.02
2019-02-18T17:06:42.105Z,99253.55
2019-02-18T17:11:53.368Z,99260.38
2019-02-18T17:17:01.236Z,99258.40
2019-02-18T17:22:09.264Z,99267.92
2019-02-18T17:27:15.202Z,99266.20
2019-02-18T17:32:24.824Z,99254.08
2019-02-18T17:37:31.100Z,99253.31
2019-02-18T17:42:42.488Z,99237.91
2019-02-18T17:47:50.575Z,99246.13
2019-02-18T17:53:02.689Z,99251.14
2019-02-18T17:58:12.711Z,99246.08
2019-02-18T18:03:25.502Z,99243.77
2019-02-18T18:08:37.344Z,99237.88
2019-02-18T18:13:47.061Z,99241.72
2019-02-18T18:18:54.962Z,99243.52
2019-02-18T18:24:00.923Z,99245.36
2019-02-18T18:29:12.388Z,99240.98
2019-02-18T18:34:21.627Z,99236.61
2019-02-18T18:39:27.910Z,99232.02
2019-02-18T18:44:39.574Z,99232.64
2019-02-18T18:49:48.990Z,99221.48
2019-02-18T18:54:56.093Z,99233.31
2019-02-18T19:00:10.990Z,99235.02
2019-02-18T19:05:19.058Z,99238.41
2019-02-18T19:10:40.595Z,99241.37
2019-02-18T19:15:50.315Z,99233.54
2019-02-18T19:20:59.142Z,99227.11
2019-02-18T19:26:08.916Z,99231.92
2019-02-18T19:31:16.940Z,99224.00
2019-02-18T19:36:25.300Z,99231.45
2019-02-18T19:41:38.890Z,99233.05
2019-02-18T19:46:46.821Z,99230.98
2019-02-18T19:52:10.471Z,99226.00
2019-02-18T19:57:23.958Z,99222.61
2019-02-18T20:02:39.677Z,99212.77
2019-02-18T20:07:50.621Z,99215.72
2019-02-18T20:18:10.552Z,99211.97
2019-02-18T20:23:26.659Z,99210.31
2019-02-18T20:28:44.507Z,99204.06
2019-02-18T20:33:54.389Z,99206.24
2019-02-18T20:39:00.872Z,99199.25
2019-02-18T20:44:15.388Z,99198.34
2019-02-18T20:49:28.534Z,99200.39
2019-02-18T20:54:39.861Z,99176.17
2019-02-18T20:59:53.540Z,99186.97
2019-02-18T21:05:05.764Z,99185.26
2019-02-18T21:10:13.357Z,99171.05
2019-02-18T21:15:32.444Z,99171.05
2019-02-18T21:20:46.811Z,99182.25
2019-02-18T21:25:56.947Z,99174.73
2019-02-18T21:31:09.711Z,99172.34
2019-02-18T21:36:22.534Z,99174.23
2019-02-18T21:41:29.341Z,99161.99
2019-02-18T21:46:46.023Z,99162.37
2019-02-18T21:51:52.128Z,99164.08
2019-02-18T21:56:58.142Z,99164.55
2019-02-18T22:02:05.620Z,99172.45
2019-02-18T22:07:18.824Z,99160.73
2019-02-18T22:12:24.662Z,99159.41
2019-02-18T22:17:30.460Z,99159.41
2019-02-18T22:22:36.476Z,99143.00
2019-02-18T22:27:45.270Z,99154.23
2019-02-18T22:32:53.725Z,99155.77
2019-02-18T22:37:59.358Z,99162.23
2019-02-18T22:43:06.813Z,99153.47
2019-02-18T22:48:13.680Z,99148.23
2019-02-18T22:53:21.703Z,99144.69
2019-02-18T22:58:30.816Z,99148.75
2019-02-18T23:03:40.201Z,99153.98
2019-02-18T23:08:47.511Z,99145.99
2019-02-18T23:13:54.669Z,99148.56
2019-02-18T23:19:00.257Z,99153.30
2019-02-18T23:24:06.357Z,99152.34
2019-02-18T23:29:13.017Z,99146.19
2019-02-18T23:34:18.761Z,99145.87
2019-02-18T23:39:24.525Z,99140.81
2019-02-18T23:44:33.259Z,99140.81
2019-02-18T23:56:13.393Z,99134.54
